Huvudsida
METAR-TAF:

METAR-TAF

Flygplatser :

Kunming, Kina

Kunming Changshui International Airport

latitud: 25-01N, longitud: 102-41E, höjd: 1892 m

Aktuellt väderrapport

Denna rapport gjordes för 1 timme och 6 minuter sedan, klockan 00:00 UTC
Vind 4 kt från nordost, varierande mellan nord och ost
Temperatur 14°C
Fuktighet 77%
Tryck 1020 hPa
Sikt 10 km eller mer
Inga moln under 1 500 m eller inga cumulonimbus

METAR: ZPPP 250000Z 05002MPS 350V080 CAVOK 14/10 Q1020 NOSIG

Tid: 09:06 (01:06 UTC)

Väderprognos

Denna rapport gjordes för 6 timmar och 1 minuter sedan, klockan 19:05 UTC
Prognos gäller från 25 kl. 00 UTC till 25 kl. 24 UTC
Vind 8 kt från nordost
Sikt 10 km eller mer
Spridda moln på en höjd av 2600 ft
Blir
från 25 kl. 02 UTC till 25 kl. 03 UTC
Vind 12 kt från sydväst

TAF: ZPPP 241905Z 2500/2524 04004MPS 9999 SCT026 TX25/2508Z TN12/2500Z BECMG 2502/2503 22006MPS

Aktuella väderrapporter och prognoser från 4000 flygplatser (METAR- och TAF-rapporter).

De tillgängliga stationerna syns som gula och röda prickar på kartan.

För musen över prickarna för att se namnen på stationerna.

Klicka sedan för att få väderrapporter och prognoser.

För att ändra kartan: Klicka på de gröna knapparna med ett svart kors på för att zooma in; den gröna knappen med ett streck på för att zooma ut; eller på de gröna pilarna för angränsande kartor.


METAR-TAF: